createdAt,value
2023-03-11T00:00:57.484Z,1.05
2023-03-11T00:03:24.742Z,1.27
2023-03-11T00:05:53.006Z,0.90
2023-03-11T00:08:22.618Z,1.45
2023-03-11T00:10:53.489Z,1.10
2023-03-11T00:13:20.128Z,1.65
2023-03-11T00:15:50.457Z,1.65
2023-03-11T00:18:17.704Z,1.70
2023-03-11T00:20:46.282Z,2.90
2023-03-11T00:23:14.282Z,4.30
2023-03-11T00:25:42.483Z,1.67
2023-03-11T00:28:10.461Z,1.13
2023-03-11T00:30:38.279Z,1.85
2023-03-11T00:33:05.398Z,1.13
2023-03-11T00:35:33.730Z,2.15
2023-03-11T00:38:03.871Z,1.45
2023-03-11T00:40:31.974Z,2.65
2023-03-11T00:42:59.805Z,3.70
2023-03-11T00:45:28.141Z,1.70
2023-03-11T00:47:55.440Z,2.28
2023-03-11T00:50:25.738Z,3.78
2023-03-11T00:52:52.994Z,2.97
2023-03-11T00:55:25.841Z,3.47
2023-03-11T00:57:54.464Z,1.30
2023-03-11T01:00:22.668Z,3.67
2023-03-11T01:02:49.364Z,1.70
2023-03-11T01:05:19.495Z,1.98
2023-03-11T01:07:46.033Z,3.15
2023-03-11T01:10:13.581Z,3.55
2023-03-11T01:12:40.273Z,2.17
2023-03-11T01:15:08.128Z,3.17
2023-03-11T01:17:34.831Z,2.30
2023-03-11T01:20:01.471Z,2.20
2023-03-11T01:22:28.029Z,2.90
2023-03-11T01:24:54.557Z,1.73
2023-03-11T01:27:21.637Z,1.90
2023-03-11T01:29:48.264Z,1.77
2023-03-11T01:32:14.823Z,1.27
2023-03-11T01:34:41.402Z,3.85
2023-03-11T01:37:07.974Z,1.02
2023-03-11T01:39:35.627Z,2.92
2023-03-11T01:42:02.271Z,4.00
2023-03-11T01:44:28.798Z,1.67
2023-03-11T01:46:58.406Z,4.88
2023-03-11T01:49:25.041Z,1.85
2023-03-11T01:51:57.215Z,1.73
2023-03-11T01:54:37.702Z,3.25
2023-03-11T01:57:12.532Z,1.00
2023-03-11T01:59:44.349Z,2.17
2023-03-11T02:02:29.646Z,2.35
2023-03-11T02:04:56.982Z,1.38
2023-03-11T02:07:23.502Z,2.40
2023-03-11T02:09:50.042Z,3.75
2023-03-11T02:12:16.713Z,3.50
2023-03-11T02:14:47.905Z,2.95
2023-03-11T02:17:15.079Z,2.17
2023-03-11T02:19:57.402Z,6.97
2023-03-11T02:22:24.451Z,2.88
2023-03-11T02:25:01.891Z,3.00
2023-03-11T02:27:31.308Z,2.28
2023-03-11T02:30:00.392Z,3.67
2023-03-11T02:32:27.587Z,5.53
2023-03-11T02:34:54.212Z,3.78
2023-03-11T02:37:20.843Z,2.45
2023-03-11T02:39:50.200Z,4.47
2023-03-11T02:42:25.351Z,3.10
2023-03-11T02:45:07.801Z,2.95
2023-03-11T02:47:36.036Z,1.30
2023-03-11T02:50:02.730Z,3.25
2023-03-11T02:52:32.015Z,3.03
2023-03-11T02:54:58.568Z,1.70
2023-03-11T02:57:25.216Z,1.08
2023-03-11T02:59:51.772Z,4.85
2023-03-11T03:02:18.360Z,4.70
2023-03-11T03:04:45.000Z,8.65
2023-03-11T03:07:11.749Z,4.03
2023-03-11T03:09:38.372Z,4.47
2023-03-11T03:12:05.489Z,5.15
2023-03-11T03:14:32.569Z,3.13
2023-03-11T03:16:59.421Z,3.03
2023-03-11T03:19:26.138Z,2.00
2023-03-11T03:21:52.696Z,4.07
2023-03-11T03:24:19.262Z,3.78
2023-03-11T03:26:45.809Z,5.45
2023-03-11T03:29:12.386Z,3.00
2023-03-11T03:31:39.706Z,3.55
2023-03-11T03:34:06.243Z,3.80
2023-03-11T03:36:32.815Z,2.42
2023-03-11T03:38:59.758Z,1.98
2023-03-11T03:41:26.379Z,2.08
2023-03-11T03:43:54.683Z,3.22
2023-03-11T03:46:21.809Z,4.95
2023-03-11T03:48:48.424Z,5.72
2023-03-11T03:51:15.980Z,8.02
2023-03-11T03:53:43.027Z,2.38
2023-03-11T03:56:12.039Z,3.15
2023-03-11T03:58:38.883Z,3.30
2023-03-11T04:01:06.486Z,6.40
2023-03-11T04:03:35.074Z,5.00
2023-03-11T04:06:11.278Z,3.03
2023-03-11T04:08:38.076Z,2.60
2023-03-11T04:11:04.723Z,2.63
2023-03-11T04:13:31.552Z,4.72
2023-03-11T04:15:58.300Z,3.65
2023-03-11T04:18:24.896Z,5.38
2023-03-11T04:20:51.409Z,4.65
2023-03-11T04:23:18.022Z,5.32
2023-03-11T04:25:44.622Z,5.70
2023-03-11T04:28:11.188Z,5.38
2023-03-11T04:30:38.077Z,4.80
2023-03-11T04:33:04.659Z,3.67
2023-03-11T04:35:31.205Z,3.95
2023-03-11T04:37:57.767Z,4.63
2023-03-11T04:40:24.342Z,3.22
2023-03-11T04:42:50.868Z,6.57
2023-03-11T04:45:18.500Z,5.43
2023-03-11T04:47:48.640Z,4.35
2023-03-11T04:50:16.014Z,4.00
2023-03-11T04:52:42.760Z,5.43
2023-03-11T04:55:10.018Z,4.63
2023-03-11T04:57:37.199Z,4.65
2023-03-11T05:00:08.725Z,5.03
2023-03-11T05:02:35.587Z,3.30
2023-03-11T05:05:02.204Z,3.67
2023-03-11T05:07:28.907Z,4.78
2023-03-11T05:09:55.401Z,3.83
2023-03-11T05:12:21.928Z,5.85
2023-03-11T05:14:48.765Z,5.63
2023-03-11T05:17:15.889Z,3.47
2023-03-11T05:19:42.449Z,7.13
2023-03-11T05:22:09.058Z,5.82
2023-03-11T05:24:35.626Z,4.28
2023-03-11T05:27:02.343Z,6.55
2023-03-11T05:29:29.788Z,3.42
2023-03-11T05:31:56.605Z,3.47
2023-03-11T05:34:23.539Z,4.50
2023-03-11T05:36:50.151Z,6.68
2023-03-11T05:39:16.804Z,4.72
2023-03-11T05:41:43.440Z,7.03
2023-03-11T05:44:10.083Z,9.27
2023-03-11T05:46:36.690Z,3.75
2023-03-11T05:49:03.364Z,3.45
2023-03-11T05:51:29.961Z,8.27
2023-03-11T05:53:56.965Z,4.90
2023-03-11T05:56:24.102Z,7.10
2023-03-11T05:58:50.793Z,8.20
2023-03-11T06:01:19.397Z,5.30
2023-03-11T06:03:46.170Z,8.50
2023-03-11T06:06:14.162Z,6.88
2023-03-11T06:08:45.859Z,8.57
2023-03-11T06:11:13.188Z,5.40
2023-03-11T06:13:39.730Z,8.82
2023-03-11T06:16:07.235Z,4.28
2023-03-11T06:18:34.317Z,7.45
2023-03-11T06:21:02.044Z,5.90
2023-03-11T06:23:30.134Z,5.10
2023-03-11T06:26:01.741Z,6.03
2023-03-11T06:28:29.261Z,8.18
2023-03-11T06:30:56.809Z,7.72
2023-03-11T06:33:24.041Z,7.03
2023-03-11T06:36:01.352Z,4.95
2023-03-11T06:38:28.054Z,6.40
2023-03-11T06:40:54.923Z,10.07
2023-03-11T06:43:22.149Z,5.45
2023-03-11T06:45:48.789Z,4.28
2023-03-11T06:48:15.373Z,4.03
2023-03-11T06:50:41.953Z,6.32
2023-03-11T06:53:08.808Z,6.53
2023-03-11T06:55:35.866Z,6.82
2023-03-11T06:58:02.982Z,4.97
2023-03-11T07:00:31.199Z,5.55
2023-03-11T07:02:57.956Z,5.10
2023-03-11T07:05:24.613Z,3.92
2023-03-11T07:07:53.898Z,7.47
2023-03-11T07:10:20.458Z,6.22
2023-03-11T07:12:47.355Z,8.68
2023-03-11T07:15:14.259Z,7.97
2023-03-11T07:17:40.835Z,8.13
2023-03-11T07:20:08.524Z,4.80
2023-03-11T07:22:35.058Z,6.25
2023-03-11T07:25:01.736Z,5.55
2023-03-11T07:27:28.952Z,4.97
2023-03-11T07:29:55.480Z,8.32
2023-03-11T07:32:22.116Z,6.50
2023-03-11T07:34:48.733Z,6.95
2023-03-11T07:37:15.492Z,5.53
2023-03-11T07:39:42.155Z,5.03
2023-03-11T07:42:11.572Z,2.95
2023-03-11T07:44:38.160Z,3.50
2023-03-11T07:47:06.077Z,6.55
2023-03-11T07:49:33.093Z,5.63
2023-03-11T07:51:59.779Z,5.88
2023-03-11T07:54:26.387Z,5.53
2023-03-11T07:56:52.936Z,4.70
2023-03-11T07:59:19.893Z,4.00
2023-03-11T08:01:47.349Z,6.60
2023-03-11T08:04:16.834Z,5.40
2023-03-11T08:06:46.069Z,8.52
2023-03-11T08:09:13.500Z,6.28
2023-03-11T08:11:40.583Z,7.13
2023-03-11T08:14:07.314Z,3.90
2023-03-11T08:16:34.114Z,4.43
2023-03-11T08:19:00.720Z,9.35
2023-03-11T08:21:31.769Z,10.82
2023-03-11T08:24:00.889Z,12.75
2023-03-11T08:26:28.397Z,5.68
2023-03-11T08:28:56.213Z,4.90
2023-03-11T08:31:26.939Z,6.85
2023-03-11T08:33:58.362Z,3.65
2023-03-11T08:36:25.025Z,6.50
2023-03-11T08:38:52.046Z,8.32
2023-03-11T08:41:19.374Z,5.53
2023-03-11T08:43:46.238Z,4.22
2023-03-11T08:46:22.719Z,3.78
2023-03-11T08:48:50.928Z,5.57
2023-03-11T08:51:18.012Z,5.00
2023-03-11T08:53:44.663Z,4.70
2023-03-11T08:56:11.347Z,6.05
2023-03-11T08:58:38.280Z,7.45
2023-03-11T09:01:06.192Z,4.70
2023-03-11T09:03:35.408Z,8.77
2023-03-11T09:06:04.898Z,8.23
2023-03-11T09:08:31.573Z,11.40
2023-03-11T09:10:58.461Z,5.10
2023-03-11T09:13:25.414Z,7.93
2023-03-11T09:15:52.853Z,4.78
2023-03-11T09:18:22.633Z,8.02
2023-03-11T09:20:49.389Z,4.55
2023-03-11T09:23:19.785Z,6.43
2023-03-11T09:25:49.139Z,6.80
2023-03-11T09:28:15.695Z,3.63
2023-03-11T09:30:42.314Z,6.60
2023-03-11T09:33:08.986Z,3.80
2023-03-11T09:35:41.233Z,3.78
2023-03-11T09:38:07.784Z,4.45
2023-03-11T09:40:56.543Z,4.03
2023-03-11T09:43:58.329Z,4.93
2023-03-11T09:46:50.858Z,5.63
2023-03-11T09:49:35.835Z,2.85
2023-03-11T09:52:13.908Z,4.78
2023-03-11T09:55:00.398Z,7.57
2023-03-11T09:57:32.249Z,7.85
2023-03-11T10:00:02.736Z,4.70
2023-03-11T10:02:30.817Z,2.85
2023-03-11T10:05:03.307Z,2.78
2023-03-11T10:10:15.030Z,5.13
2023-03-11T10:13:20.068Z,5.10
2023-03-11T10:15:58.568Z,5.35
2023-03-11T10:18:37.437Z,6.00
2023-03-11T10:21:28.694Z,4.53
2023-03-11T10:24:32.014Z,3.00
2023-03-11T10:27:06.231Z,6.10
2023-03-11T10:29:47.191Z,5.80
2023-03-11T10:32:36.208Z,7.60
2023-03-11T10:35:46.235Z,2.40
2023-03-11T10:38:22.399Z,18.35
2023-03-11T10:40:53.678Z,14.45
2023-03-11T10:43:40.543Z,11.07
2023-03-11T10:46:17.763Z,6.60
2023-03-11T10:48:44.413Z,3.42
2023-03-11T10:51:22.837Z,3.00
2023-03-11T10:53:55.684Z,3.60
2023-03-11T10:56:28.700Z,4.03
2023-03-11T10:58:56.121Z,3.45
2023-03-11T11:01:22.878Z,4.55
2023-03-11T11:03:57.624Z,2.60
2023-03-11T11:06:37.386Z,5.72
2023-03-11T11:09:17.969Z,5.55
2023-03-11T11:12:03.332Z,7.07
2023-03-11T11:14:52.960Z,4.55
2023-03-11T11:17:34.274Z,4.85
2023-03-11T11:20:13.094Z,4.85
2023-03-11T11:22:48.837Z,4.50
2023-03-11T11:25:36.930Z,6.97
2023-03-11T11:28:20.858Z,10.15
2023-03-11T11:31:06.125Z,6.03
2023-03-11T11:33:50.879Z,4.32
2023-03-11T11:36:18.896Z,4.40
2023-03-11T11:38:45.470Z,9.25
2023-03-11T11:41:18.212Z,3.97
2023-03-11T11:43:58.218Z,1.92
2023-03-11T11:46:31.444Z,3.97
2023-03-11T11:49:20.833Z,3.97
2023-03-11T11:51:52.092Z,3.25
2023-03-11T11:54:29.229Z,4.43
2023-03-11T11:56:56.898Z,3.00
2023-03-11T11:59:25.238Z,6.75
2023-03-11T12:02:16.494Z,3.30
2023-03-11T12:04:48.043Z,4.68
2023-03-11T12:07:34.198Z,1.97
2023-03-11T12:10:38.318Z,3.00
2023-03-11T12:13:14.295Z,3.45
2023-03-11T12:15:55.503Z,5.28
2023-03-11T12:18:45.071Z,4.82
2023-03-11T12:21:28.307Z,2.63
2023-03-11T12:24:21.719Z,5.25
2023-03-11T12:26:52.284Z,9.63
2023-03-11T12:29:43.332Z,9.60
2023-03-11T12:32:23.561Z,72.22
2023-03-11T12:34:50.392Z,33.55
2023-03-11T12:37:22.469Z,15.10
2023-03-11T12:39:49.120Z,19.15
2023-03-11T12:42:36.853Z,7.13
2023-03-11T12:45:47.421Z,6.80
2023-03-11T12:48:29.407Z,9.82
2023-03-11T12:50:59.913Z,4.22
2023-03-11T12:53:47.146Z,3.30
2023-03-11T12:56:39.613Z,5.22
2023-03-11T12:59:14.563Z,3.45
2023-03-11T13:02:11.984Z,2.38
2023-03-11T13:05:07.628Z,5.07
2023-03-11T13:07:49.044Z,4.25
2023-03-11T13:10:18.563Z,2.80
2023-03-11T13:12:50.407Z,2.80
2023-03-11T13:15:22.692Z,2.38
2023-03-11T13:18:05.255Z,3.92
2023-03-11T13:20:44.378Z,4.10
2023-03-11T13:23:14.110Z,3.55
2023-03-11T13:26:03.751Z,3.10
2023-03-11T13:28:58.427Z,6.00
2023-03-11T13:31:39.200Z,3.35
2023-03-11T13:34:17.465Z,2.33
2023-03-11T13:37:18.124Z,6.50
2023-03-11T13:40:13.996Z,5.25
2023-03-11T13:42:45.743Z,5.88
2023-03-11T13:45:32.196Z,4.43
2023-03-11T13:48:07.870Z,6.60
2023-03-11T13:50:38.879Z,5.90
2023-03-11T13:53:15.692Z,5.78
2023-03-11T13:55:46.325Z,3.00
2023-03-11T13:58:31.092Z,4.20
2023-03-11T14:00:59.943Z,3.33
2023-03-11T14:03:31.646Z,5.50
2023-03-11T14:06:04.955Z,3.45
2023-03-11T14:08:35.547Z,3.95
2023-03-11T14:11:08.316Z,1.75
2023-03-11T14:13:43.385Z,3.05
2023-03-11T14:16:44.333Z,2.70
2023-03-11T14:19:15.897Z,4.80
2023-03-11T14:21:44.291Z,128.93
2023-03-11T14:24:23.519Z,10.88
2023-03-11T14:26:55.080Z,2.47
2023-03-11T14:29:32.807Z,5.73
2023-03-11T14:31:59.565Z,3.85
2023-03-11T14:34:28.818Z,4.00
2023-03-11T14:36:58.894Z,6.60
2023-03-11T14:39:29.632Z,3.65
2023-03-11T14:42:03.926Z,4.65
2023-03-11T14:44:38.641Z,7.38
2023-03-11T14:47:12.052Z,3.88
2023-03-11T14:49:39.688Z,3.83
2023-03-11T14:52:14.074Z,2.95
2023-03-11T14:54:41.682Z,1.70
2023-03-11T14:57:22.266Z,2.80
2023-03-11T14:59:50.671Z,4.75
2023-03-11T15:02:35.764Z,2.90
2023-03-11T15:05:10.380Z,12.55
2023-03-11T15:07:38.336Z,5.30
2023-03-11T15:10:09.979Z,11.25
2023-03-11T15:12:44.158Z,3.97
2023-03-11T15:15:40.694Z,5.03
2023-03-11T15:18:22.800Z,6.47
2023-03-11T15:21:03.870Z,2.50
2023-03-11T15:23:31.053Z,3.30
2023-03-11T15:25:57.733Z,2.22
2023-03-11T15:28:28.068Z,3.45
2023-03-11T15:31:22.448Z,4.30
2023-03-11T15:33:51.512Z,9.60
2023-03-11T15:36:31.394Z,4.00
2023-03-11T15:39:28.898Z,3.22
2023-03-11T15:42:03.547Z,1.77
2023-03-11T15:44:33.306Z,2.38
2023-03-11T15:47:00.904Z,4.95
2023-03-11T15:49:29.119Z,6.80
2023-03-11T15:51:59.855Z,4.30
2023-03-11T15:54:27.223Z,4.10
2023-03-11T15:56:55.514Z,3.72
2023-03-11T15:59:22.428Z,3.38
2023-03-11T16:01:48.959Z,3.83
2023-03-11T16:04:18.498Z,2.92
2023-03-11T16:06:49.584Z,2.55
2023-03-11T16:09:20.835Z,2.45
2023-03-11T16:11:47.424Z,3.58
2023-03-11T16:14:20.580Z,3.72
2023-03-11T16:16:47.613Z,2.40
2023-03-11T16:19:14.320Z,3.80
2023-03-11T16:21:46.006Z,4.32
2023-03-11T16:24:18.959Z,4.35
2023-03-11T16:26:45.809Z,4.93
2023-03-11T16:29:19.359Z,2.65
2023-03-11T16:31:46.526Z,2.80
2023-03-11T16:34:13.268Z,1.55
2023-03-11T16:36:39.849Z,3.97
2023-03-11T16:39:06.733Z,2.03
2023-03-11T16:41:42.172Z,5.55
2023-03-11T16:44:09.959Z,4.07
2023-03-11T16:46:36.956Z,2.90
2023-03-11T16:49:03.992Z,4.75
2023-03-11T16:51:31.149Z,5.97
2023-03-11T16:53:58.069Z,3.58
2023-03-11T16:56:24.731Z,2.17
2023-03-11T16:58:51.458Z,3.45
2023-03-11T17:01:19.156Z,4.25
2023-03-11T17:03:48.797Z,4.22
2023-03-11T17:06:17.045Z,4.22
2023-03-11T17:08:48.881Z,4.38
2023-03-11T17:11:23.259Z,4.38
2023-03-11T17:13:50.498Z,50.28
2023-03-11T17:16:17.190Z,43.10
2023-03-11T17:18:43.952Z,30.77
2023-03-11T17:21:13.381Z,6.60
2023-03-11T17:23:40.303Z,4.20
2023-03-11T17:26:14.995Z,2.28
2023-03-11T17:28:42.425Z,5.00
2023-03-11T17:31:15.191Z,2.63
2023-03-11T17:33:42.396Z,3.25
2023-03-11T17:36:12.904Z,5.95
2023-03-11T17:38:39.570Z,3.58
2023-03-11T17:41:16.924Z,2.42
2023-03-11T17:43:44.172Z,5.43
2023-03-11T17:46:14.372Z,7.60
2023-03-11T17:48:45.217Z,9.00
2023-03-11T17:51:14.600Z,5.63
2023-03-11T17:53:45.549Z,7.13
2023-03-11T17:56:14.505Z,4.43
2023-03-11T17:58:41.876Z,2.33
2023-03-11T18:01:12.871Z,4.55
2023-03-11T18:03:39.474Z,1.92
2023-03-11T18:06:06.831Z,2.83
2023-03-11T18:08:35.431Z,5.50
2023-03-11T18:11:10.499Z,4.45
2023-03-11T18:13:38.622Z,5.70
2023-03-11T18:16:18.081Z,2.85
2023-03-11T18:18:45.203Z,2.97
2023-03-11T18:21:20.621Z,8.30
2023-03-11T18:23:48.191Z,8.85
2023-03-11T18:26:17.392Z,7.15
2023-03-11T18:28:44.820Z,7.80
2023-03-11T18:31:17.237Z,10.48
2023-03-11T18:33:48.940Z,18.52
2023-03-11T18:36:18.128Z,12.50
2023-03-11T18:38:45.337Z,10.38
2023-03-11T18:41:12.136Z,8.07
2023-03-11T18:43:38.664Z,6.38
2023-03-11T18:46:10.231Z,6.70
2023-03-11T18:48:37.630Z,8.50
2023-03-11T18:51:04.660Z,13.85
2023-03-11T18:53:31.249Z,15.88
2023-03-11T18:56:12.424Z,13.57
2023-03-11T18:58:39.004Z,18.25
2023-03-11T19:01:18.044Z,15.63
2023-03-11T19:03:49.815Z,18.67
2023-03-11T19:06:16.696Z,23.33
2023-03-11T19:08:43.782Z,13.48
2023-03-11T19:11:12.386Z,89.10
2023-03-11T19:13:46.597Z,60.00
2023-03-11T19:16:16.949Z,15.98
2023-03-11T19:18:43.891Z,15.00
2023-03-11T19:21:12.979Z,12.48
2023-03-11T19:23:40.177Z,22.98
2023-03-11T19:26:07.168Z,21.13
2023-03-11T19:28:33.943Z,23.08
2023-03-11T19:31:00.577Z,28.17
2023-03-11T19:33:27.589Z,27.80
2023-03-11T19:35:59.687Z,34.38
2023-03-11T19:38:27.343Z,36.65
2023-03-11T19:41:05.005Z,26.20
2023-03-11T19:43:31.944Z,27.20
2023-03-11T19:45:58.677Z,29.92
2023-03-11T19:48:25.285Z,37.53
2023-03-11T19:50:52.062Z,35.58
2023-03-11T19:53:20.433Z,35.13
2023-03-11T19:55:50.101Z,38.15
2023-03-11T19:58:17.926Z,23.55
2023-03-11T20:00:45.126Z,22.02
2023-03-11T20:03:12.818Z,21.58
2023-03-11T20:05:41.236Z,21.00
2023-03-11T20:08:08.718Z,21.73
2023-03-11T20:10:39.940Z,18.77
2023-03-11T20:13:07.185Z,21.42
2023-03-11T20:15:33.816Z,21.08
2023-03-11T20:18:01.173Z,21.63
2023-03-11T20:20:30.880Z,23.55
2023-03-11T20:22:58.201Z,22.40
2023-03-11T20:25:25.593Z,22.58
2023-03-11T20:27:53.293Z,23.02
2023-03-11T20:30:20.236Z,25.40
2023-03-11T20:32:47.449Z,24.27
2023-03-11T20:35:15.261Z,27.13
2023-03-11T20:37:43.390Z,35.60
2023-03-11T20:40:14.824Z,130.30
2023-03-11T20:42:46.627Z,57.28
2023-03-11T20:45:16.223Z,38.70
2023-03-11T20:47:44.348Z,37.20
2023-03-11T20:50:14.386Z,37.38
2023-03-11T20:52:41.040Z,41.58
2023-03-11T20:55:10.116Z,38.40
2023-03-11T20:57:38.147Z,39.25
2023-03-11T21:00:11.630Z,39.13
2023-03-11T21:02:40.021Z,39.80
2023-03-11T21:05:08.476Z,43.60
2023-03-11T21:07:35.654Z,40.85
2023-03-11T21:10:04.639Z,40.80
2023-03-11T21:12:31.464Z,41.72
2023-03-11T21:14:58.230Z,58.88
2023-03-11T21:17:24.853Z,126.68
2023-03-11T21:19:51.530Z,98.57
2023-03-11T21:22:18.156Z,51.58
2023-03-11T21:24:45.285Z,38.72
2023-03-11T21:27:12.067Z,34.25
2023-03-11T21:29:38.745Z,31.48
2023-03-11T21:32:05.768Z,32.20
2023-03-11T21:34:32.557Z,29.17
2023-03-11T21:36:59.191Z,28.15
2023-03-11T21:39:25.764Z,30.17
2023-03-11T21:41:53.323Z,28.38
2023-03-11T21:44:20.063Z,23.27
2023-03-11T21:46:47.083Z,16.55
2023-03-11T21:49:14.928Z,16.13
2023-03-11T21:51:41.790Z,17.02
2023-03-11T21:54:10.429Z,17.17
2023-03-11T21:56:37.144Z,22.75
2023-03-11T21:59:04.269Z,30.58
2023-03-11T22:01:31.522Z,34.03
2023-03-11T22:03:58.362Z,38.67
2023-03-11T22:06:25.174Z,32.17
2023-03-11T22:08:52.463Z,37.50
2023-03-11T22:11:20.521Z,31.60
2023-03-11T22:13:49.478Z,126.32
2023-03-11T22:16:16.773Z,95.30
2023-03-11T22:18:43.736Z,82.20
2023-03-11T22:21:11.177Z,63.80
2023-03-11T22:23:37.994Z,54.40
2023-03-11T22:26:04.938Z,54.97
2023-03-11T22:28:31.645Z,47.65
2023-03-11T22:30:58.404Z,44.83
2023-03-11T22:33:26.015Z,42.05
2023-03-11T22:35:57.392Z,34.95
2023-03-11T22:38:24.022Z,46.65
2023-03-11T22:40:51.105Z,39.92
2023-03-11T22:43:17.769Z,36.03
2023-03-11T22:45:45.062Z,38.55
2023-03-11T22:48:11.606Z,40.35
2023-03-11T22:50:42.352Z,37.05
2023-03-11T22:53:08.958Z,39.97
2023-03-11T22:55:39.973Z,38.90
2023-03-11T22:58:06.898Z,39.83
2023-03-11T23:00:34.038Z,39.97
2023-03-11T23:03:00.719Z,45.03
2023-03-11T23:05:27.434Z,36.25
2023-03-11T23:07:54.108Z,32.13
2023-03-11T23:10:21.556Z,31.75
2023-03-11T23:12:48.933Z,34.50
2023-03-11T23:15:18.040Z,33.13
2023-03-11T23:17:44.648Z,35.67
2023-03-11T23:20:13.880Z,35.45
2023-03-11T23:22:41.702Z,37.17
2023-03-11T23:25:11.694Z,39.80
2023-03-11T23:27:38.233Z,41.60
2023-03-11T23:30:05.777Z,37.55
2023-03-11T23:32:32.394Z,36.83
2023-03-11T23:34:59.024Z,36.05
2023-03-11T23:37:25.565Z,35.10
2023-03-11T23:39:52.211Z,41.75
2023-03-11T23:42:25.841Z,31.38
2023-03-11T23:44:53.225Z,27.30
2023-03-11T23:47:19.834Z,30.98
2023-03-11T23:49:46.386Z,29.45
2023-03-11T23:52:12.951Z,27.10
2023-03-11T23:54:39.492Z,24.08
2023-03-11T23:57:06.068Z,27.70
2023-03-11T23:59:32.755Z,30.45
